createdAt,value
2023-09-25T00:00:36.370Z,81.65
2023-09-25T00:03:06.339Z,80.98
2023-09-25T00:05:35.478Z,81.24
2023-09-25T00:08:04.556Z,81.79
2023-09-25T00:10:34.039Z,82.20
2023-09-25T00:13:03.038Z,82.51
2023-09-25T00:15:32.000Z,81.96
2023-09-25T00:18:00.429Z,82.14
2023-09-25T00:20:29.419Z,82.21
2023-09-25T00:22:58.042Z,82.19
2023-09-25T00:25:29.376Z,82.47
2023-09-25T00:27:59.176Z,82.92
2023-09-25T00:30:27.862Z,82.87
2023-09-25T00:32:56.376Z,82.44
2023-09-25T00:35:24.796Z,82.17
2023-09-25T00:37:52.993Z,82.05
2023-09-25T00:40:25.646Z,82.42
2023-09-25T00:42:56.597Z,82.43
2023-09-25T00:45:26.339Z,82.67
2023-09-25T00:47:55.431Z,82.75
2023-09-25T00:50:30.583Z,81.89
2023-09-25T00:53:02.530Z,81.77
2023-09-25T00:55:30.693Z,82.34
2023-09-25T00:58:01.137Z,82.59
2023-09-25T01:00:30.666Z,82.78
2023-09-25T01:02:58.968Z,82.76
2023-09-25T01:05:27.953Z,82.90
2023-09-25T01:07:56.112Z,82.45
2023-09-25T01:10:24.275Z,82.35
2023-09-25T01:12:54.248Z,82.27
2023-09-25T01:15:23.664Z,82.81
2023-09-25T01:17:53.636Z,82.37
2023-09-25T01:20:23.684Z,82.07
2023-09-25T01:22:54.454Z,81.98
2023-09-25T01:25:24.278Z,82.51
2023-09-25T01:27:52.947Z,82.74
2023-09-25T01:30:21.951Z,83.00
2023-09-25T01:32:53.017Z,83.15
2023-09-25T01:35:26.181Z,83.38
2023-09-25T01:38:00.944Z,83.27
2023-09-25T01:40:30.169Z,82.97
2023-09-25T01:42:58.613Z,82.60
2023-09-25T01:45:26.868Z,82.63
2023-09-25T01:47:55.637Z,83.35
2023-09-25T01:50:26.020Z,83.47
2023-09-25T01:52:57.020Z,83.58
2023-09-25T01:55:30.078Z,83.47
2023-09-25T01:57:58.190Z,83.40
2023-09-25T02:00:26.759Z,83.07
2023-09-25T02:02:55.148Z,82.76
2023-09-25T02:05:23.532Z,82.54
2023-09-25T02:07:51.829Z,81.96
2023-09-25T02:10:20.345Z,82.06
2023-09-25T02:12:49.938Z,82.35
2023-09-25T02:15:18.549Z,81.94
2023-09-25T02:17:46.751Z,81.48
2023-09-25T02:20:18.284Z,81.30
2023-09-25T02:22:47.969Z,81.31
2023-09-25T02:25:16.767Z,81.90
2023-09-25T02:27:45.292Z,81.71
2023-09-25T02:30:15.951Z,81.05
2023-09-25T02:32:44.718Z,81.11
2023-09-25T02:35:13.889Z,81.67
2023-09-25T02:37:43.349Z,82.13
2023-09-25T02:40:14.502Z,82.20
2023-09-25T02:42:43.195Z,81.52
2023-09-25T02:45:12.590Z,81.42
2023-09-25T02:47:42.203Z,81.36
2023-09-25T02:50:11.505Z,81.10
2023-09-25T02:52:39.674Z,80.85
2023-09-25T02:55:08.974Z,80.83
2023-09-25T02:57:37.254Z,81.67
2023-09-25T03:00:10.249Z,82.59
2023-09-25T03:02:38.483Z,82.90
2023-09-25T03:05:09.080Z,83.51
2023-09-25T03:07:37.235Z,82.72
2023-09-25T03:10:06.370Z,82.46
2023-09-25T03:12:34.605Z,82.83
2023-09-25T03:15:02.756Z,82.48
2023-09-25T03:17:30.942Z,82.30
2023-09-25T03:19:59.138Z,81.98
2023-09-25T03:22:28.641Z,82.11
2023-09-25T03:24:58.219Z,82.60
2023-09-25T03:27:26.422Z,83.45
2023-09-25T03:29:54.812Z,82.09
2023-09-25T03:32:22.906Z,82.39
2023-09-25T03:34:51.075Z,82.60
2023-09-25T03:37:21.376Z,83.12
2023-09-25T03:39:51.181Z,83.61
2023-09-25T03:42:19.358Z,83.74
2023-09-25T03:44:48.308Z,83.07
2023-09-25T03:47:16.423Z,82.58
2023-09-25T03:49:45.173Z,81.92
2023-09-25T03:52:13.602Z,82.95
2023-09-25T03:54:41.801Z,83.93
2023-09-25T03:57:11.337Z,84.33
2023-09-25T03:59:39.690Z,84.02
2023-09-25T04:02:07.840Z,83.98
2023-09-25T04:04:36.093Z,83.82
2023-09-25T04:07:04.876Z,83.85
2023-09-25T04:09:34.106Z,83.41
2023-09-25T04:12:02.308Z,82.71
2023-09-25T04:14:33.576Z,82.72
2023-09-25T04:17:02.901Z,82.77
2023-09-25T04:19:32.006Z,82.82
2023-09-25T04:22:00.627Z,82.78
2023-09-25T04:24:29.011Z,82.91
2023-09-25T04:26:57.142Z,83.97
2023-09-25T04:29:25.283Z,84.33
2023-09-25T04:31:54.831Z,84.62
2023-09-25T04:34:23.040Z,84.40
2023-09-25T04:36:52.534Z,84.80
2023-09-25T04:39:21.472Z,84.57
2023-09-25T04:41:49.883Z,83.71
2023-09-25T04:44:19.296Z,83.19
2023-09-25T04:46:47.912Z,83.03
2023-09-25T04:49:19.086Z,83.52
2023-09-25T04:51:49.847Z,83.81
2023-09-25T04:54:18.893Z,84.44
2023-09-25T04:56:47.573Z,84.65
2023-09-25T04:59:15.942Z,84.51
2023-09-25T05:01:44.187Z,83.17
2023-09-25T05:04:12.447Z,83.22
2023-09-25T05:06:41.992Z,83.92
2023-09-25T05:09:12.607Z,84.33
2023-09-25T05:11:40.833Z,84.11
2023-09-25T05:14:09.015Z,84.05
2023-09-25T05:16:37.203Z,83.14
2023-09-25T05:19:05.447Z,83.20
2023-09-25T05:21:33.692Z,84.00
2023-09-25T05:24:03.200Z,84.85
2023-09-25T05:26:31.359Z,84.06
2023-09-25T05:29:01.139Z,82.73
2023-09-25T05:31:30.417Z,82.70
2023-09-25T05:33:58.630Z,82.40
2023-09-25T05:36:26.841Z,82.58
2023-09-25T05:38:56.578Z,82.87
2023-09-25T05:41:26.252Z,83.33
2023-09-25T05:43:54.965Z,83.11
2023-09-25T05:46:23.142Z,83.39
2023-09-25T05:48:51.368Z,83.46
2023-09-25T05:51:19.885Z,83.54
2023-09-25T05:53:48.917Z,82.79
2023-09-25T05:56:17.570Z,81.96
2023-09-25T05:58:47.820Z,81.91
2023-09-25T06:01:16.267Z,81.82
2023-09-25T06:03:44.953Z,82.05
2023-09-25T06:06:13.259Z,82.37
2023-09-25T06:08:41.441Z,81.67
2023-09-25T06:11:09.831Z,81.13
2023-09-25T06:13:38.001Z,80.93
2023-09-25T06:16:07.616Z,80.32
2023-09-25T06:18:35.791Z,80.66
2023-09-25T06:21:04.217Z,80.36
2023-09-25T06:23:32.682Z,80.42
2023-09-25T06:26:02.727Z,79.61
2023-09-25T06:28:31.129Z,79.94
2023-09-25T06:30:59.326Z,79.68
2023-09-25T06:33:29.983Z,78.75
2023-09-25T06:35:58.661Z,77.45
2023-09-25T06:38:26.849Z,77.01
2023-09-25T06:40:54.981Z,76.98
2023-09-25T06:43:23.149Z,76.85
2023-09-25T06:45:51.328Z,77.05
2023-09-25T06:48:19.830Z,76.67
2023-09-25T06:50:49.381Z,76.57
2023-09-25T06:53:17.516Z,75.90
2023-09-25T06:55:45.999Z,75.81
2023-09-25T06:58:14.194Z,76.01
2023-09-25T07:00:54.578Z,75.61
2023-09-25T07:03:25.867Z,74.66
2023-09-25T07:05:55.707Z,75.19
2023-09-25T07:08:24.755Z,74.22
2023-09-25T07:10:53.258Z,74.18
2023-09-25T07:13:22.542Z,73.22
2023-09-25T07:15:50.749Z,73.70
2023-09-25T07:18:19.367Z,73.50
2023-09-25T07:20:56.684Z,73.54
2023-09-25T07:23:24.889Z,73.51
2023-09-25T07:26:02.815Z,72.38
2023-09-25T07:28:30.992Z,71.38
2023-09-25T07:31:00.874Z,71.13
2023-09-25T07:33:30.307Z,71.67
2023-09-25T07:36:02.903Z,71.50
2023-09-25T07:38:34.070Z,70.18
2023-09-25T07:41:03.190Z,70.21
2023-09-25T07:43:46.452Z,70.53
2023-09-25T07:46:22.197Z,70.11
2023-09-25T07:48:50.813Z,70.15
2023-09-25T07:51:20.504Z,70.04
2023-09-25T07:53:48.685Z,70.22
2023-09-25T07:56:17.001Z,69.93
2023-09-25T07:58:45.553Z,68.96
2023-09-25T08:01:15.320Z,68.44
2023-09-25T08:03:44.662Z,68.61
2023-09-25T08:06:13.565Z,68.43
2023-09-25T08:08:43.089Z,68.43
2023-09-25T08:11:11.263Z,67.81
2023-09-25T08:13:39.375Z,67.33
2023-09-25T08:16:08.534Z,67.45
2023-09-25T08:18:37.642Z,67.35
2023-09-25T08:21:06.651Z,66.97
2023-09-25T08:23:34.816Z,66.55
2023-09-25T08:26:06.553Z,65.63
2023-09-25T08:28:37.363Z,65.86
2023-09-25T08:31:05.673Z,65.29
2023-09-25T08:33:33.881Z,65.11
2023-09-25T08:36:02.139Z,65.12
2023-09-25T08:38:30.651Z,64.57
2023-09-25T08:40:59.342Z,64.41
2023-09-25T08:43:30.662Z,64.64
2023-09-25T08:46:00.032Z,63.60
2023-09-25T08:48:28.303Z,63.96
2023-09-25T08:50:56.864Z,63.67
2023-09-25T08:53:25.131Z,63.38
2023-09-25T08:55:53.658Z,62.74
2023-09-25T08:58:22.881Z,62.19
2023-09-25T09:00:54.777Z,62.30
2023-09-25T09:03:23.346Z,61.88
2023-09-25T09:05:51.599Z,62.06
2023-09-25T09:08:19.788Z,61.10
2023-09-25T09:10:47.980Z,61.08
2023-09-25T09:13:17.728Z,60.53
2023-09-25T09:15:46.093Z,60.34
2023-09-25T09:18:26.944Z,60.21
2023-09-25T09:20:57.285Z,59.03
2023-09-25T09:23:41.879Z,59.20
2023-09-25T09:26:13.512Z,59.13
2023-09-25T09:28:44.129Z,59.03
2023-09-25T09:31:12.865Z,57.46
2023-09-25T09:33:43.478Z,57.59
2023-09-25T09:36:12.344Z,57.81
2023-09-25T09:38:41.774Z,57.62
2023-09-25T09:41:10.751Z,56.65
2023-09-25T09:43:39.835Z,56.53
2023-09-25T09:46:12.385Z,56.72
2023-09-25T09:48:45.773Z,56.22
2023-09-25T09:51:18.362Z,56.52
2023-09-25T09:53:47.530Z,56.39
2023-09-25T09:56:17.441Z,56.49
2023-09-25T09:58:48.546Z,56.30
2023-09-25T10:01:18.204Z,55.93
2023-09-25T10:03:48.991Z,55.91
2023-09-25T10:06:17.369Z,55.19
2023-09-25T10:09:09.863Z,55.60
2023-09-25T10:11:38.345Z,55.64
2023-09-25T10:14:09.448Z,55.28
2023-09-25T10:17:00.166Z,54.15
2023-09-25T10:19:50.565Z,54.72
2023-09-25T10:22:22.073Z,55.00
2023-09-25T10:25:01.462Z,55.26
2023-09-25T10:27:33.009Z,54.54
2023-09-25T10:30:12.707Z,54.10
2023-09-25T10:32:43.468Z,54.02
2023-09-25T10:35:48.875Z,52.63
2023-09-25T10:40:53.172Z,52.63
2023-09-25T10:43:24.366Z,52.16
2023-09-25T10:45:55.356Z,52.61
2023-09-25T10:48:24.769Z,52.75
2023-09-25T10:50:54.568Z,52.10
2023-09-25T10:53:24.606Z,52.22
2023-09-25T10:55:52.800Z,51.98
2023-09-25T10:58:22.585Z,52.71
2023-09-25T11:00:52.004Z,51.47
2023-09-25T11:03:21.805Z,51.48
2023-09-25T11:05:50.743Z,51.71
2023-09-25T11:08:22.310Z,51.47
2023-09-25T11:10:50.920Z,50.80
2023-09-25T11:13:19.419Z,51.00
2023-09-25T11:15:48.295Z,51.09
2023-09-25T11:18:21.183Z,51.43
2023-09-25T11:20:49.709Z,50.87
2023-09-25T11:23:22.494Z,51.03
2023-09-25T11:25:54.909Z,51.38
2023-09-25T11:28:27.973Z,51.70
2023-09-25T11:30:56.889Z,50.20
2023-09-25T11:33:26.064Z,49.91
2023-09-25T11:35:55.869Z,50.21
2023-09-25T11:38:29.842Z,50.45
2023-09-25T11:41:02.011Z,50.21
2023-09-25T11:43:30.349Z,50.14
2023-09-25T11:45:58.845Z,50.01
2023-09-25T11:48:27.337Z,49.11
2023-09-25T11:50:57.537Z,49.52
2023-09-25T11:53:27.819Z,49.96
2023-09-25T11:55:56.134Z,50.18
2023-09-25T11:58:24.480Z,49.50
2023-09-25T12:00:52.706Z,49.98
2023-09-25T12:03:20.965Z,49.70
2023-09-25T12:05:50.080Z,50.00
2023-09-25T12:08:19.093Z,49.62
2023-09-25T12:10:48.638Z,50.30
2023-09-25T12:13:17.837Z,49.86
2023-09-25T12:15:46.218Z,49.71
2023-09-25T12:18:14.826Z,49.86
2023-09-25T12:20:44.195Z,50.16
2023-09-25T12:23:12.557Z,50.18
2023-09-25T12:25:40.887Z,49.56
2023-09-25T12:28:10.560Z,49.76
2023-09-25T12:30:39.024Z,50.14
2023-09-25T12:33:08.874Z,49.69
2023-09-25T12:35:37.867Z,47.45
2023-09-25T12:38:07.518Z,45.49
2023-09-25T12:40:35.678Z,46.26
2023-09-25T12:43:04.097Z,47.22
2023-09-25T12:45:33.748Z,47.32
2023-09-25T12:48:01.983Z,47.27
2023-09-25T12:50:31.666Z,47.62
2023-09-25T12:53:02.059Z,48.01
2023-09-25T12:55:32.497Z,48.08
2023-09-25T12:58:01.351Z,48.64
2023-09-25T13:00:29.945Z,48.91
2023-09-25T13:02:59.862Z,48.72
2023-09-25T13:05:28.455Z,48.89
2023-09-25T13:07:56.939Z,48.46
2023-09-25T13:10:25.559Z,48.73
2023-09-25T13:12:54.046Z,48.91
2023-09-25T13:15:23.016Z,48.54
2023-09-25T13:17:53.377Z,48.65
2023-09-25T13:20:23.504Z,48.60
2023-09-25T13:22:52.502Z,49.24
2023-09-25T13:25:21.091Z,48.73
2023-09-25T13:27:51.164Z,49.05
2023-09-25T13:30:21.806Z,49.23
2023-09-25T13:32:50.595Z,48.59
2023-09-25T13:35:20.633Z,48.86
2023-09-25T13:37:50.746Z,49.39
2023-09-25T13:40:19.555Z,49.50
2023-09-25T13:42:48.106Z,48.72
2023-09-25T13:45:16.758Z,49.14
2023-09-25T13:47:45.836Z,48.24
2023-09-25T13:50:15.494Z,48.24
2023-09-25T13:52:44.181Z,49.56
2023-09-25T13:55:16.394Z,48.66
2023-09-25T13:57:45.386Z,48.92
2023-09-25T14:00:14.521Z,48.81
2023-09-25T14:02:44.092Z,49.26
2023-09-25T14:05:13.928Z,48.88
2023-09-25T14:07:42.956Z,48.88
2023-09-25T14:10:15.358Z,49.00
2023-09-25T14:12:45.703Z,48.58
2023-09-25T14:15:15.295Z,48.63
2023-09-25T14:17:45.211Z,48.70
2023-09-25T14:20:14.153Z,48.67
2023-09-25T14:22:43.098Z,48.19
2023-09-25T14:25:13.761Z,48.29
2023-09-25T14:27:41.980Z,48.28
2023-09-25T14:30:13.499Z,48.64
2023-09-25T14:32:41.811Z,49.96
2023-09-25T14:35:11.603Z,50.17
2023-09-25T14:37:41.651Z,49.95
2023-09-25T14:40:13.207Z,50.48
2023-09-25T14:42:47.464Z,49.80
2023-09-25T14:45:17.655Z,50.09
2023-09-25T14:47:46.354Z,49.38
2023-09-25T14:50:14.545Z,49.58
2023-09-25T14:52:42.847Z,49.72
2023-09-25T14:55:11.589Z,49.19
2023-09-25T14:57:42.936Z,49.74
2023-09-25T15:00:13.604Z,50.10
2023-09-25T15:02:41.828Z,50.64
2023-09-25T15:05:10.921Z,50.71
2023-09-25T15:07:39.189Z,50.74
2023-09-25T15:10:09.376Z,50.59
2023-09-25T15:12:38.019Z,50.73
2023-09-25T15:15:09.987Z,50.99
2023-09-25T15:17:38.349Z,51.12
2023-09-25T15:20:09.721Z,51.68
2023-09-25T15:22:38.025Z,51.79
2023-09-25T15:25:07.466Z,52.02
2023-09-25T15:27:35.653Z,52.30
2023-09-25T15:30:03.933Z,52.65
2023-09-25T15:32:33.516Z,52.57
2023-09-25T15:35:01.716Z,52.44
2023-09-25T15:37:33.447Z,52.77
2023-09-25T15:40:01.824Z,53.20
2023-09-25T15:42:30.343Z,53.08
2023-09-25T15:44:58.752Z,53.08
2023-09-25T15:47:26.947Z,53.08
2023-09-25T15:49:56.498Z,53.34
2023-09-25T15:52:24.726Z,53.73
2023-09-25T15:54:52.999Z,54.10
2023-09-25T15:57:21.399Z,54.38
2023-09-25T15:59:49.576Z,54.34
2023-09-25T16:02:17.762Z,54.50
2023-09-25T16:04:46.115Z,54.71
2023-09-25T16:07:15.601Z,54.97
2023-09-25T16:09:43.799Z,54.93
2023-09-25T16:12:12.309Z,54.93
2023-09-25T16:14:40.773Z,55.31
2023-09-25T16:17:11.715Z,55.45
2023-09-25T16:19:41.128Z,55.29
2023-09-25T16:22:09.678Z,55.66
2023-09-25T16:24:39.604Z,55.93
2023-09-25T16:27:07.809Z,56.35
2023-09-25T16:29:36.066Z,56.72
2023-09-25T16:32:04.440Z,57.03
2023-09-25T16:34:32.626Z,57.38
2023-09-25T16:37:00.831Z,57.79
2023-09-25T16:39:32.074Z,58.23
2023-09-25T16:42:04.037Z,58.85
2023-09-25T16:44:32.244Z,59.14
2023-09-25T16:47:01.655Z,59.08
2023-09-25T16:49:29.918Z,59.45
2023-09-25T16:51:58.115Z,59.76
2023-09-25T16:54:26.353Z,59.91
2023-09-25T16:56:54.524Z,59.96
2023-09-25T16:59:24.036Z,60.18
2023-09-25T17:01:52.237Z,60.54
2023-09-25T17:04:20.490Z,60.66
2023-09-25T17:06:48.807Z,60.82
2023-09-25T17:09:17.842Z,61.06
2023-09-25T17:11:46.036Z,61.42
2023-09-25T17:14:14.294Z,61.98
2023-09-25T17:16:43.944Z,61.98
2023-09-25T17:19:12.210Z,62.40
2023-09-25T17:21:40.435Z,62.63
2023-09-25T17:24:09.192Z,62.55
2023-09-25T17:26:37.373Z,62.46
2023-09-25T17:29:05.649Z,62.54
2023-09-25T17:31:33.926Z,62.83
2023-09-25T17:34:03.527Z,63.14
2023-09-25T17:36:31.801Z,63.38
2023-09-25T17:38:59.960Z,63.05
2023-09-25T17:41:28.893Z,63.80
2023-09-25T17:43:57.101Z,63.94
2023-09-25T17:46:25.798Z,64.49
2023-09-25T17:48:54.468Z,64.73
2023-09-25T17:51:24.315Z,65.11
2023-09-25T17:53:52.981Z,65.58
2023-09-25T17:56:21.588Z,66.09
2023-09-25T17:58:50.196Z,66.40
2023-09-25T18:01:18.717Z,66.35
2023-09-25T18:03:47.365Z,66.15
2023-09-25T18:06:15.973Z,66.00
2023-09-25T18:08:45.896Z,66.17
2023-09-25T18:11:14.427Z,66.06
2023-09-25T18:13:42.880Z,66.22
2023-09-25T18:16:11.412Z,65.91
2023-09-25T18:18:40.107Z,66.18
2023-09-25T18:21:08.617Z,66.41
2023-09-25T18:23:37.391Z,66.56
2023-09-25T18:26:07.555Z,67.15
2023-09-25T18:28:36.039Z,67.46
2023-09-25T18:31:06.260Z,67.77
2023-09-25T18:33:34.885Z,67.48
2023-09-25T18:36:03.361Z,67.02
2023-09-25T18:38:31.826Z,66.98
2023-09-25T18:41:00.376Z,67.26
2023-09-25T18:43:30.246Z,67.45
2023-09-25T18:45:59.146Z,67.89
2023-09-25T18:48:27.635Z,68.32
2023-09-25T18:50:56.114Z,68.68
2023-09-25T18:53:24.587Z,69.09
2023-09-25T18:55:53.039Z,69.35
2023-09-25T18:58:21.512Z,69.59
2023-09-25T19:00:52.211Z,69.76
2023-09-25T19:03:20.836Z,70.27
2023-09-25T19:05:51.628Z,70.28
2023-09-25T19:08:21.422Z,70.71
2023-09-25T19:10:50.050Z,70.67
2023-09-25T19:13:38.844Z,70.27
2023-09-25T19:16:12.222Z,70.26
2023-09-25T19:18:42.360Z,70.41
2023-09-25T19:21:11.668Z,70.11
2023-09-25T19:23:40.778Z,70.02
2023-09-25T19:26:09.320Z,70.15
2023-09-25T19:28:38.095Z,69.83
2023-09-25T19:31:16.158Z,69.52
2023-09-25T19:34:02.272Z,69.20
2023-09-25T19:36:31.224Z,69.62
2023-09-25T19:38:59.763Z,69.27
2023-09-25T19:41:28.338Z,68.65
2023-09-25T19:43:56.920Z,69.29
2023-09-25T19:46:25.647Z,69.59
2023-09-25T19:48:55.739Z,69.80
2023-09-25T19:51:24.236Z,70.05
2023-09-25T19:53:52.862Z,70.22
2023-09-25T19:56:21.480Z,69.94
2023-09-25T19:58:50.025Z,70.38
2023-09-25T20:01:18.871Z,70.38
2023-09-25T20:03:47.512Z,70.83
2023-09-25T20:06:17.551Z,70.94
2023-09-25T20:08:46.105Z,71.06
2023-09-25T20:11:14.576Z,71.43
2023-09-25T20:13:42.993Z,71.62
2023-09-25T20:16:11.556Z,71.57
2023-09-25T20:18:40.373Z,71.74
2023-09-25T20:21:09.437Z,71.85
2023-09-25T20:23:39.301Z,72.23
2023-09-25T20:26:09.607Z,72.22
2023-09-25T20:28:38.800Z,72.55
2023-09-25T20:31:07.641Z,72.62
2023-09-25T20:33:36.237Z,72.74
2023-09-25T20:36:05.807Z,73.00
2023-09-25T20:38:34.545Z,73.22
2023-09-25T20:41:04.558Z,73.00
2023-09-25T20:43:33.056Z,73.21
2023-09-25T20:46:02.490Z,73.53
2023-09-25T20:48:32.778Z,73.81
2023-09-25T20:51:03.283Z,73.98
2023-09-25T20:53:31.786Z,74.28
2023-09-25T20:56:00.312Z,74.23
2023-09-25T20:58:30.256Z,74.34
2023-09-25T21:00:58.804Z,74.61
2023-09-25T21:03:27.360Z,74.85
2023-09-25T21:05:55.896Z,74.75
2023-09-25T21:08:24.916Z,74.86
2023-09-25T21:10:53.921Z,75.17
2023-09-25T21:13:22.531Z,75.06
2023-09-25T21:15:52.460Z,75.10
2023-09-25T21:18:20.991Z,75.44
2023-09-25T21:20:49.985Z,75.77
2023-09-25T21:23:18.462Z,76.35
2023-09-25T21:25:46.946Z,76.64
2023-09-25T21:28:15.447Z,76.87
2023-09-25T21:30:44.076Z,77.26
2023-09-25T21:33:13.948Z,77.69
2023-09-25T21:35:42.399Z,78.14
2023-09-25T21:38:10.874Z,78.59
2023-09-25T21:40:40.436Z,78.86
2023-09-25T21:43:08.928Z,79.26
2023-09-25T21:45:37.575Z,79.51
2023-09-25T21:48:07.092Z,79.98
2023-09-25T21:50:36.934Z,80.39
2023-09-25T21:53:05.725Z,80.53
2023-09-25T21:55:34.157Z,80.75
2023-09-25T21:58:03.348Z,80.85
2023-09-25T22:00:33.194Z,81.11
2023-09-25T22:03:01.862Z,81.18
2023-09-25T22:05:30.631Z,81.33
2023-09-25T22:08:00.476Z,81.63
2023-09-25T22:10:29.650Z,81.86
2023-09-25T22:12:58.286Z,81.94
2023-09-25T22:15:28.226Z,82.24
2023-09-25T22:17:58.094Z,82.23
2023-09-25T22:20:28.335Z,82.30
2023-09-25T22:22:58.120Z,82.04
2023-09-25T22:25:28.140Z,81.95
2023-09-25T22:27:57.111Z,81.75
2023-09-25T22:30:26.139Z,81.55
2023-09-25T22:32:54.674Z,81.47
2023-09-25T22:35:23.657Z,81.52
2023-09-25T22:38:08.066Z,81.38
2023-09-25T22:40:40.285Z,81.32
2023-09-25T22:43:09.711Z,81.47
2023-09-25T22:45:38.361Z,81.66
2023-09-25T22:48:07.363Z,81.89
2023-09-25T22:50:36.088Z,81.52
2023-09-25T22:53:04.784Z,81.45
2023-09-25T22:55:33.596Z,81.73
2023-09-25T22:58:05.512Z,82.07
2023-09-25T23:00:34.111Z,81.82
2023-09-25T23:03:02.797Z,81.86
2023-09-25T23:05:31.424Z,82.14
2023-09-25T23:07:59.894Z,82.60
2023-09-25T23:10:29.335Z,82.99
2023-09-25T23:12:57.834Z,83.23
2023-09-25T23:15:27.761Z,83.45
2023-09-25T23:17:56.296Z,83.54
2023-09-25T23:20:26.222Z,83.75
2023-09-25T23:22:56.799Z,84.01
2023-09-25T23:25:26.506Z,84.23
2023-09-25T23:27:55.391Z,84.44
2023-09-25T23:30:24.827Z,84.78
2023-09-25T23:32:54.966Z,84.76
2023-09-25T23:35:23.841Z,84.74
2023-09-25T23:37:52.282Z,84.97
2023-09-25T23:40:22.945Z,84.99
2023-09-25T23:42:52.321Z,85.20
2023-09-25T23:45:22.784Z,85.36
2023-09-25T23:47:51.839Z,85.50
2023-09-25T23:50:21.858Z,85.61
2023-09-25T23:52:54.306Z,85.66
2023-09-25T23:55:23.093Z,85.81
2023-09-25T23:57:51.658Z,85.82
